sensor_id;sensor_type;location;lat;lon;timestamp;temperature;humidity
74359;DHT22;62792;46.236;6.040;2022-12-18T00:00:49;21.60;38.50
74359;DHT22;62792;46.236;6.040;2022-12-18T00:05:52;21.60;38.50
74359;DHT22;62792;46.236;6.040;2022-12-18T00:10:56;21.50;38.50
74359;DHT22;62792;46.236;6.040;2022-12-18T00:16:08;21.40;38.60
74359;DHT22;62792;46.236;6.040;2022-12-18T00:21:12;21.40;38.60
74359;DHT22;62792;46.236;6.040;2022-12-18T00:26:17;21.40;38.50
74359;DHT22;62792;46.236;6.040;2022-12-18T00:31:21;21.40;38.70
74359;DHT22;62792;46.236;6.040;2022-12-18T00:36:25;21.40;38.50
74359;DHT22;62792;46.236;6.040;2022-12-18T00:41:29;21.30;38.30
74359;DHT22;62792;46.236;6.040;2022-12-18T00:46:50;21.30;38.50
74359;DHT22;62792;46.236;6.040;2022-12-18T00:51:52;21.20;38.50
74359;DHT22;62792;46.236;6.040;2022-12-18T00:56:56;21.10;38.50
74359;DHT22;62792;46.236;6.040;2022-12-18T01:01:59;21.10;38.60
74359;DHT22;62792;46.236;6.040;2022-12-18T01:07:02;21.10;38.50
74359;DHT22;62792;46.236;6.040;2022-12-18T01:12:07;21.10;38.60
74359;DHT22;62792;46.236;6.040;2022-12-18T01:17:09;21.00;38.50
74359;DHT22;62792;46.236;6.040;2022-12-18T01:22:12;21.00;38.50
74359;DHT22;62792;46.236;6.040;2022-12-18T01:27:16;21.00;38.50
74359;DHT22;62792;46.236;6.040;2022-12-18T01:32:19;20.90;38.40
74359;DHT22;62792;46.236;6.040;2022-12-18T01:37:22;20.90;38.50
74359;DHT22;62792;46.236;6.040;2022-12-18T01:42:26;20.90;38.60
74359;DHT22;62792;46.236;6.040;2022-12-18T01:47:30;20.80;39.00
74359;DHT22;62792;46.236;6.040;2022-12-18T01:52:33;20.90;39.00
74359;DHT22;62792;46.236;6.040;2022-12-18T01:57:38;20.80;38.90
74359;DHT22;62792;46.236;6.040;2022-12-18T02:02:41;20.90;39.00
74359;DHT22;62792;46.236;6.040;2022-12-18T02:07:48;20.80;38.80
74359;DHT22;62792;46.236;6.040;2022-12-18T02:12:56;20.70;38.90
74359;DHT22;62792;46.236;6.040;2022-12-18T02:18:02;20.80;39.00
74359;DHT22;62792;46.236;6.040;2022-12-18T02:23:10;20.80;38.90
74359;DHT22;62792;46.236;6.040;2022-12-18T02:28:16;20.80;38.90
74359;DHT22;62792;46.236;6.040;2022-12-18T02:33:20;20.70;38.70
74359;DHT22;62792;46.236;6.040;2022-12-18T02:38:23;20.70;39.00
74359;DHT22;62792;46.236;6.040;2022-12-18T02:43:29;20.70;39.00
74359;DHT22;62792;46.236;6.040;2022-12-18T02:48:32;20.70;38.80
74359;DHT22;62792;46.236;6.040;2022-12-18T02:53:36;20.60;38.80
74359;DHT22;62792;46.236;6.040;2022-12-18T02:58:44;20.60;38.90
74359;DHT22;62792;46.236;6.040;2022-12-18T03:03:50;20.60;38.90
74359;DHT22;62792;46.236;6.040;2022-12-18T03:08:56;20.60;38.80
74359;DHT22;62792;46.236;6.040;2022-12-18T03:14:01;20.60;38.90
74359;DHT22;62792;46.236;6.040;2022-12-18T03:19:06;20.70;39.00
74359;DHT22;62792;46.236;6.040;2022-12-18T03:24:10;20.60;38.90
74359;DHT22;62792;46.236;6.040;2022-12-18T03:29:16;20.60;38.90
74359;DHT22;62792;46.236;6.040;2022-12-18T03:34:21;20.60;38.70
74359;DHT22;62792;46.236;6.040;2022-12-18T03:39:25;20.60;38.70
74359;DHT22;62792;46.236;6.040;2022-12-18T03:44:30;20.70;38.70
74359;DHT22;62792;46.236;6.040;2022-12-18T03:49:38;20.60;38.90
74359;DHT22;62792;46.236;6.040;2022-12-18T03:54:43;20.60;38.70
74359;DHT22;62792;46.236;6.040;2022-12-18T03:59:49;20.60;38.80
74359;DHT22;62792;46.236;6.040;2022-12-18T04:04:53;20.60;38.90
74359;DHT22;62792;46.236;6.040;2022-12-18T04:09:58;20.50;38.80
74359;DHT22;62792;46.236;6.040;2022-12-18T04:15:04;20.50;38.90
74359;DHT22;62792;46.236;6.040;2022-12-18T04:20:07;20.60;38.90
74359;DHT22;62792;46.236;6.040;2022-12-18T04:25:11;20.50;38.50
74359;DHT22;62792;46.236;6.040;2022-12-18T04:30:15;20.50;38.80
74359;DHT22;62792;46.236;6.040;2022-12-18T04:35:19;20.50;38.70
74359;DHT22;62792;46.236;6.040;2022-12-18T04:40:21;20.50;38.80
74359;DHT22;62792;46.236;6.040;2022-12-18T04:45:25;20.50;38.90
74359;DHT22;62792;46.236;6.040;2022-12-18T04:50:28;20.40;38.70
74359;DHT22;62792;46.236;6.040;2022-12-18T04:55:31;20.40;38.70
74359;DHT22;62792;46.236;6.040;2022-12-18T05:00:35;20.40;38.80
74359;DHT22;62792;46.236;6.040;2022-12-18T05:05:38;20.40;38.70
74359;DHT22;62792;46.236;6.040;2022-12-18T05:10:40;20.40;38.80
74359;DHT22;62792;46.236;6.040;2022-12-18T05:15:50;20.30;38.70
74359;DHT22;62792;46.236;6.040;2022-12-18T05:20:54;20.40;38.70
74359;DHT22;62792;46.236;6.040;2022-12-18T05:25:57;20.40;38.70
74359;DHT22;62792;46.236;6.040;2022-12-18T05:31:02;20.30;38.80
74359;DHT22;62792;46.236;6.040;2022-12-18T05:36:06;20.30;38.60
74359;DHT22;62792;46.236;6.040;2022-12-18T05:41:09;20.30;38.60
74359;DHT22;62792;46.236;6.040;2022-12-18T05:46:14;20.30;38.70
74359;DHT22;62792;46.236;6.040;2022-12-18T05:51:17;20.30;38.70
74359;DHT22;62792;46.236;6.040;2022-12-18T05:56:21;20.30;38.70
74359;DHT22;62792;46.236;6.040;2022-12-18T06:01:26;20.30;38.70
74359;DHT22;62792;46.236;6.040;2022-12-18T06:06:29;20.20;38.60
74359;DHT22;62792;46.236;6.040;2022-12-18T06:11:31;20.30;38.60
74359;DHT22;62792;46.236;6.040;2022-12-18T06:16:35;20.20;38.50
74359;DHT22;62792;46.236;6.040;2022-12-18T06:21:38;20.30;38.80
74359;DHT22;62792;46.236;6.040;2022-12-18T06:26:41;20.20;38.70
74359;DHT22;62792;46.236;6.040;2022-12-18T06:31:45;20.20;38.60
74359;DHT22;62792;46.236;6.040;2022-12-18T06:36:48;20.20;38.70
74359;DHT22;62792;46.236;6.040;2022-12-18T06:41:50;20.20;38.70
74359;DHT22;62792;46.236;6.040;2022-12-18T06:46:54;20.20;38.70
74359;DHT22;62792;46.236;6.040;2022-12-18T06:51:57;20.10;38.80
74359;DHT22;62792;46.236;6.040;2022-12-18T06:57:00;20.10;38.60
74359;DHT22;62792;46.236;6.040;2022-12-18T07:02:04;20.10;38.60
74359;DHT22;62792;46.236;6.040;2022-12-18T07:07:07;20.10;38.60
74359;DHT22;62792;46.236;6.040;2022-12-18T07:12:09;20.20;38.70
74359;DHT22;62792;46.236;6.040;2022-12-18T07:17:13;20.20;38.60
74359;DHT22;62792;46.236;6.040;2022-12-18T07:22:16;20.10;38.60
74359;DHT22;62792;46.236;6.040;2022-12-18T07:27:21;20.00;38.70
74359;DHT22;62792;46.236;6.040;2022-12-18T07:32:25;20.10;38.60
74359;DHT22;62792;46.236;6.040;2022-12-18T07:37:28;20.00;38.70
74359;DHT22;62792;46.236;6.040;2022-12-18T07:42:30;20.00;38.60
74359;DHT22;62792;46.236;6.040;2022-12-18T07:47:35;20.00;38.70
74359;DHT22;62792;46.236;6.040;2022-12-18T07:52:38;20.10;38.60
74359;DHT22;62792;46.236;6.040;2022-12-18T07:57:41;20.00;38.70
74359;DHT22;62792;46.236;6.040;2022-12-18T08:02:57;19.90;38.50
74359;DHT22;62792;46.236;6.040;2022-12-18T08:07:59;20.00;38.80
74359;DHT22;62792;46.236;6.040;2022-12-18T08:13:02;19.90;38.80
74359;DHT22;62792;46.236;6.040;2022-12-18T08:18:07;20.00;38.50
74359;DHT22;62792;46.236;6.040;2022-12-18T08:23:14;19.90;38.50
74359;DHT22;62792;46.236;6.040;2022-12-18T08:28:17;19.90;38.50
74359;DHT22;62792;46.236;6.040;2022-12-18T08:33:21;19.80;38.80
74359;DHT22;62792;46.236;6.040;2022-12-18T08:38:24;19.90;38.60
74359;DHT22;62792;46.236;6.040;2022-12-18T08:43:26;19.90;38.50
74359;DHT22;62792;46.236;6.040;2022-12-18T08:48:48;19.90;38.60
74359;DHT22;62792;46.236;6.040;2022-12-18T08:53:52;19.90;38.70
74359;DHT22;62792;46.236;6.040;2022-12-18T08:58:55;19.90;38.70
74359;DHT22;62792;46.236;6.040;2022-12-18T09:03:59;19.90;38.70
74359;DHT22;62792;46.236;6.040;2022-12-18T09:09:02;19.80;38.60
74359;DHT22;62792;46.236;6.040;2022-12-18T09:14:04;19.80;38.80
74359;DHT22;62792;46.236;6.040;2022-12-18T09:19:09;19.90;38.70
74359;DHT22;62792;46.236;6.040;2022-12-18T09:24:12;19.80;38.60
74359;DHT22;62792;46.236;6.040;2022-12-18T09:29:15;19.80;38.70
74359;DHT22;62792;46.236;6.040;2022-12-18T09:34:21;19.80;38.60
74359;DHT22;62792;46.236;6.040;2022-12-18T09:39:23;19.70;38.60
74359;DHT22;62792;46.236;6.040;2022-12-18T09:44:28;19.80;38.70
74359;DHT22;62792;46.236;6.040;2022-12-18T09:49:33;19.70;38.80
74359;DHT22;62792;46.236;6.040;2022-12-18T09:54:38;19.70;38.60
74359;DHT22;62792;46.236;6.040;2022-12-18T09:59:46;19.80;38.70
74359;DHT22;62792;46.236;6.040;2022-12-18T10:04:55;19.80;38.70
74359;DHT22;62792;46.236;6.040;2022-12-18T10:10:04;19.70;38.60
74359;DHT22;62792;46.236;6.040;2022-12-18T10:15:10;19.80;38.60
74359;DHT22;62792;46.236;6.040;2022-12-18T10:20:19;19.70;38.60
74359;DHT22;62792;46.236;6.040;2022-12-18T10:25:25;19.70;38.80
74359;DHT22;62792;46.236;6.040;2022-12-18T10:30:29;19.80;38.70
74359;DHT22;62792;46.236;6.040;2022-12-18T10:35:33;19.70;38.80
74359;DHT22;62792;46.236;6.040;2022-12-18T10:40:47;19.80;38.50
74359;DHT22;62792;46.236;6.040;2022-12-18T10:46:04;19.60;38.80
74359;DHT22;62792;46.236;6.040;2022-12-18T10:51:09;19.70;38.60
74359;DHT22;62792;46.236;6.040;2022-12-18T10:56:13;19.70;38.70
74359;DHT22;62792;46.236;6.040;2022-12-18T11:01:22;19.60;38.80
74359;DHT22;62792;46.236;6.040;2022-12-18T11:06:26;19.60;38.80
74359;DHT22;62792;46.236;6.040;2022-12-18T11:11:29;19.60;38.40
74359;DHT22;62792;46.236;6.040;2022-12-18T11:16:34;19.70;38.80
74359;DHT22;62792;46.236;6.040;2022-12-18T11:21:40;19.70;38.70
74359;DHT22;62792;46.236;6.040;2022-12-18T11:26:43;19.70;38.80
74359;DHT22;62792;46.236;6.040;2022-12-18T11:31:46;19.70;38.70
74359;DHT22;62792;46.236;6.040;2022-12-18T11:36:50;19.60;38.70
74359;DHT22;62792;46.236;6.040;2022-12-18T11:41:54;19.70;38.70
74359;DHT22;62792;46.236;6.040;2022-12-18T11:47:16;19.60;38.60
74359;DHT22;62792;46.236;6.040;2022-12-18T11:52:24;19.60;38.70
74359;DHT22;62792;46.236;6.040;2022-12-18T11:57:31;19.60;38.80
74359;DHT22;62792;46.236;6.040;2022-12-18T12:02:41;19.60;38.80
74359;DHT22;62792;46.236;6.040;2022-12-18T12:07:47;19.60;38.80
74359;DHT22;62792;46.236;6.040;2022-12-18T12:12:56;19.60;38.90
74359;DHT22;62792;46.236;6.040;2022-12-18T12:18:03;19.60;38.80
74359;DHT22;62792;46.236;6.040;2022-12-18T12:23:15;19.60;38.70
74359;DHT22;62792;46.236;6.040;2022-12-18T12:28:32;19.50;38.80
74359;DHT22;62792;46.236;6.040;2022-12-18T12:33:38;19.60;38.80
74359;DHT22;62792;46.236;6.040;2022-12-18T12:38:46;19.60;38.70
74359;DHT22;62792;46.236;6.040;2022-12-18T12:43:52;19.50;38.80
74359;DHT22;62792;46.236;6.040;2022-12-18T12:48:58;19.50;39.00
74359;DHT22;62792;46.236;6.040;2022-12-18T12:54:05;19.50;38.90
74359;DHT22;62792;46.236;6.040;2022-12-18T12:59:10;19.50;38.90
74359;DHT22;62792;46.236;6.040;2022-12-18T13:04:19;19.50;38.90
74359;DHT22;62792;46.236;6.040;2022-12-18T13:09:25;19.50;38.80
74359;DHT22;62792;46.236;6.040;2022-12-18T13:14:34;19.50;38.90
74359;DHT22;62792;46.236;6.040;2022-12-18T13:19:37;19.50;38.90
74359;DHT22;62792;46.236;6.040;2022-12-18T13:24:41;19.40;39.00
74359;DHT22;62792;46.236;6.040;2022-12-18T13:29:45;19.50;38.80
74359;DHT22;62792;46.236;6.040;2022-12-18T13:34:48;19.50;39.10
74359;DHT22;62792;46.236;6.040;2022-12-18T13:39:52;19.50;38.90
74359;DHT22;62792;46.236;6.040;2022-12-18T13:44:55;19.60;39.00
74359;DHT22;62792;46.236;6.040;2022-12-18T13:49:58;19.50;39.10
74359;DHT22;62792;46.236;6.040;2022-12-18T13:55:04;19.50;39.00
74359;DHT22;62792;46.236;6.040;2022-12-18T14:00:17;19.50;39.00
74359;DHT22;62792;46.236;6.040;2022-12-18T14:05:26;19.40;39.30
74359;DHT22;62792;46.236;6.040;2022-12-18T14:10:31;19.50;38.90
74359;DHT22;62792;46.236;6.040;2022-12-18T14:15:49;19.50;38.80
74359;DHT22;62792;46.236;6.040;2022-12-18T14:20:53;19.50;38.80
74359;DHT22;62792;46.236;6.040;2022-12-18T14:25:59;19.50;39.20
74359;DHT22;62792;46.236;6.040;2022-12-18T14:31:15;19.60;39.10
74359;DHT22;62792;46.236;6.040;2022-12-18T14:36:20;19.50;38.90
74359;DHT22;62792;46.236;6.040;2022-12-18T14:41:25;19.60;39.20
74359;DHT22;62792;46.236;6.040;2022-12-18T14:46:30;19.50;39.10
74359;DHT22;62792;46.236;6.040;2022-12-18T14:51:34;19.50;39.20
74359;DHT22;62792;46.236;6.040;2022-12-18T14:56:44;19.50;39.20
74359;DHT22;62792;46.236;6.040;2022-12-18T15:01:49;19.50;39.00
74359;DHT22;62792;46.236;6.040;2022-12-18T15:07:04;19.50;39.00
74359;DHT22;62792;46.236;6.040;2022-12-18T15:12:15;19.60;39.30
74359;DHT22;62792;46.236;6.040;2022-12-18T15:17:21;19.50;39.30
74359;DHT22;62792;46.236;6.040;2022-12-18T15:22:28;19.50;39.20
74359;DHT22;62792;46.236;6.040;2022-12-18T15:27:32;19.50;39.10
74359;DHT22;62792;46.236;6.040;2022-12-18T15:32:38;19.50;39.20
74359;DHT22;62792;46.236;6.040;2022-12-18T15:37:41;19.50;39.10
74359;DHT22;62792;46.236;6.040;2022-12-18T15:42:46;19.50;39.30
74359;DHT22;62792;46.236;6.040;2022-12-18T15:48:15;19.50;39.40
74359;DHT22;62792;46.236;6.040;2022-12-18T15:53:20;19.40;39.40
74359;DHT22;62792;46.236;6.040;2022-12-18T15:58:24;19.50;39.30
74359;DHT22;62792;46.236;6.040;2022-12-18T16:03:27;19.50;39.50
74359;DHT22;62792;46.236;6.040;2022-12-18T16:08:30;19.40;39.30
74359;DHT22;62792;46.236;6.040;2022-12-18T16:13:34;19.50;39.20
74359;DHT22;62792;46.236;6.040;2022-12-18T16:18:37;19.40;39.40
74359;DHT22;62792;46.236;6.040;2022-12-18T16:23:39;19.40;39.40
74359;DHT22;62792;46.236;6.040;2022-12-18T16:28:44;19.40;39.40
74359;DHT22;62792;46.236;6.040;2022-12-18T16:33:49;19.40;39.50
74359;DHT22;62792;46.236;6.040;2022-12-18T16:38:51;19.40;39.40
74359;DHT22;62792;46.236;6.040;2022-12-18T16:43:55;19.30;39.40
74359;DHT22;62792;46.236;6.040;2022-12-18T16:48:58;19.40;39.50
74359;DHT22;62792;46.236;6.040;2022-12-18T16:54:01;19.40;39.50
74359;DHT22;62792;46.236;6.040;2022-12-18T16:59:12;19.40;39.60
74359;DHT22;62792;46.236;6.040;2022-12-18T17:04:16;19.30;39.70
74359;DHT22;62792;46.236;6.040;2022-12-18T17:09:19;19.40;39.60
74359;DHT22;62792;46.236;6.040;2022-12-18T17:14:25;19.30;39.60
74359;DHT22;62792;46.236;6.040;2022-12-18T17:19:28;19.30;39.60
74359;DHT22;62792;46.236;6.040;2022-12-18T17:24:31;19.40;39.60
74359;DHT22;62792;46.236;6.040;2022-12-18T17:29:37;19.30;39.50
74359;DHT22;62792;46.236;6.040;2022-12-18T17:34:48;19.20;39.60
74359;DHT22;62792;46.236;6.040;2022-12-18T17:39:50;19.30;39.60
74359;DHT22;62792;46.236;6.040;2022-12-18T17:44:55;19.30;39.60
74359;DHT22;62792;46.236;6.040;2022-12-18T17:49:58;19.10;39.60
74359;DHT22;62792;46.236;6.040;2022-12-18T17:55:00;19.30;39.60
74359;DHT22;62792;46.236;6.040;2022-12-18T18:00:05;19.30;39.80
74359;DHT22;62792;46.236;6.040;2022-12-18T18:05:09;19.20;39.70
74359;DHT22;62792;46.236;6.040;2022-12-18T18:10:14;19.20;39.60
74359;DHT22;62792;46.236;6.040;2022-12-18T18:15:18;19.20;39.70
74359;DHT22;62792;46.236;6.040;2022-12-18T18:20:21;19.20;39.80
74359;DHT22;62792;46.236;6.040;2022-12-18T18:25:24;19.20;39.90
74359;DHT22;62792;46.236;6.040;2022-12-18T18:30:29;19.20;39.90
74359;DHT22;62792;46.236;6.040;2022-12-18T18:35:31;19.20;39.90
74359;DHT22;62792;46.236;6.040;2022-12-18T18:40:57;19.20;39.80
74359;DHT22;62792;46.236;6.040;2022-12-18T18:46:02;19.10;39.70
74359;DHT22;62792;46.236;6.040;2022-12-18T18:51:07;19.20;39.90
74359;DHT22;62792;46.236;6.040;2022-12-18T18:56:12;19.20;39.60
74359;DHT22;62792;46.236;6.040;2022-12-18T19:01:36;19.10;39.70
74359;DHT22;62792;46.236;6.040;2022-12-18T19:06:39;19.10;39.60
74359;DHT22;62792;46.236;6.040;2022-12-18T19:11:43;19.20;39.70
74359;DHT22;62792;46.236;6.040;2022-12-18T19:17:05;19.10;39.70
74359;DHT22;62792;46.236;6.040;2022-12-18T19:22:08;19.10;39.90
74359;DHT22;62792;46.236;6.040;2022-12-18T19:27:11;19.10;39.90
74359;DHT22;62792;46.236;6.040;2022-12-18T19:32:15;19.10;39.90
74359;DHT22;62792;46.236;6.040;2022-12-18T19:37:18;19.20;39.90
74359;DHT22;62792;46.236;6.040;2022-12-18T19:42:20;19.10;40.00
74359;DHT22;62792;46.236;6.040;2022-12-18T19:47:30;19.10;40.00
74359;DHT22;62792;46.236;6.040;2022-12-18T19:52:32;19.10;39.80
74359;DHT22;62792;46.236;6.040;2022-12-18T19:57:35;19.10;39.90
74359;DHT22;62792;46.236;6.040;2022-12-18T20:02:39;19.10;40.10
74359;DHT22;62792;46.236;6.040;2022-12-18T20:07:42;19.10;40.00
74359;DHT22;62792;46.236;6.040;2022-12-18T20:12:44;19.10;40.00
74359;DHT22;62792;46.236;6.040;2022-12-18T20:17:49;19.10;40.00
74359;DHT22;62792;46.236;6.040;2022-12-18T20:22:53;19.10;40.10
74359;DHT22;62792;46.236;6.040;2022-12-18T20:27:55;19.10;40.00
74359;DHT22;62792;46.236;6.040;2022-12-18T20:32:59;19.00;40.10
74359;DHT22;62792;46.236;6.040;2022-12-18T20:38:02;19.00;40.00
74359;DHT22;62792;46.236;6.040;2022-12-18T20:43:06;19.10;40.00
74359;DHT22;62792;46.236;6.040;2022-12-18T20:48:17;19.10;40.00
74359;DHT22;62792;46.236;6.040;2022-12-18T20:53:27;19.10;40.00
74359;DHT22;62792;46.236;6.040;2022-12-18T20:58:29;19.10;40.00
74359;DHT22;62792;46.236;6.040;2022-12-18T21:03:33;19.10;40.00
74359;DHT22;62792;46.236;6.040;2022-12-18T21:08:36;19.10;40.10
74359;DHT22;62792;46.236;6.040;2022-12-18T21:13:39;19.00;39.90
74359;DHT22;62792;46.236;6.040;2022-12-18T21:18:43;19.10;40.00
74359;DHT22;62792;46.236;6.040;2022-12-18T21:23:46;19.00;40.30
74359;DHT22;62792;46.236;6.040;2022-12-18T21:28:51;19.10;40.10
74359;DHT22;62792;46.236;6.040;2022-12-18T21:33:56;19.10;40.20
74359;DHT22;62792;46.236;6.040;2022-12-18T21:39:03;19.00;40.10
74359;DHT22;62792;46.236;6.040;2022-12-18T21:44:06;19.10;40.10
74359;DHT22;62792;46.236;6.040;2022-12-18T21:49:11;19.10;40.10
74359;DHT22;62792;46.236;6.040;2022-12-18T21:54:14;19.00;40.20
74359;DHT22;62792;46.236;6.040;2022-12-18T21:59:18;19.00;40.10
74359;DHT22;62792;46.236;6.040;2022-12-18T22:04:23;19.00;40.20
74359;DHT22;62792;46.236;6.040;2022-12-18T22:09:26;19.00;40.10
74359;DHT22;62792;46.236;6.040;2022-12-18T22:14:29;19.00;40.20
74359;DHT22;62792;46.236;6.040;2022-12-18T22:19:33;19.10;40.20
74359;DHT22;62792;46.236;6.040;2022-12-18T22:24:43;19.10;40.20
74359;DHT22;62792;46.236;6.040;2022-12-18T22:29:46;19.00;40.20
74359;DHT22;62792;46.236;6.040;2022-12-18T22:35:08;19.10;40.10
74359;DHT22;62792;46.236;6.040;2022-12-18T22:40:16;19.10;40.20
74359;DHT22;62792;46.236;6.040;2022-12-18T22:45:26;19.00;40.30
74359;DHT22;62792;46.236;6.040;2022-12-18T22:50:30;19.00;40.10
74359;DHT22;62792;46.236;6.040;2022-12-18T22:55:34;19.10;40.10
74359;DHT22;62792;46.236;6.040;2022-12-18T23:00:36;19.10;40.20
74359;DHT22;62792;46.236;6.040;2022-12-18T23:05:40;19.00;40.20
74359;DHT22;62792;46.236;6.040;2022-12-18T23:10:43;19.00;40.40
74359;DHT22;62792;46.236;6.040;2022-12-18T23:15:46;19.10;40.20
74359;DHT22;62792;46.236;6.040;2022-12-18T23:20:50;19.10;40.20
74359;DHT22;62792;46.236;6.040;2022-12-18T23:25:58;19.00;40.50
74359;DHT22;62792;46.236;6.040;2022-12-18T23:31:02;19.10;40.40
74359;DHT22;62792;46.236;6.040;2022-12-18T23:36:09;19.10;40.30
74359;DHT22;62792;46.236;6.040;2022-12-18T23:41:12;19.10;40.30
74359;DHT22;62792;46.236;6.040;2022-12-18T23:46:16;19.00;40.30
74359;DHT22;62792;46.236;6.040;2022-12-18T23:51:21;19.10;40.40
74359;DHT22;62792;46.236;6.040;2022-12-18T23:56:26;19.10;40.20
